Archival Weather

Longyear

Longyear, Svalbard (ENSB)

Report from: Wednesday, December 6, 2023 5:50 AM UTC
Current time: Saturday, March 2, 2024 10:00 AM UTC

Current weather – Weather history – Daily summaries
Weather forecast

Temperature-4.0°C (24.8°F)
Wind chill-11.8°C (10.7°F)
Dew point-10.0°C (14.0°F)
Winds 17 kts (8.7 m/s, 19.6 mph) East-Southeast (120°)
Visibility6.2 mi. (10 km)
Clouds Few clouds 1,500 ft. (457 m)
Altimeter30.59 in.Hg (1036 mB)
Relative humidity63 %
Density altitude-3,068 ft. (-935 m)
Flight conditions Visual Meteorological Conditions
Raw dataENSB 060550Z 12017KT 9999 FEW015 M04/M10 Q1036 RMK WIND 1400FT 10020KT
An error has occurred. This application may no longer respond until reloaded. Reload 🗙